sensor_id;sensor_type;location;lat;lon;timestamp;P1;durP1;ratioP1;P2;durP2;ratioP2
13832;SDS011;6987;19.472;-99.276;2022-10-16T00:01:08;3.30;;;3.10;;
13832;SDS011;6987;19.472;-99.276;2022-10-16T00:03:38;4.03;;;3.63;;
13832;SDS011;6987;19.472;-99.276;2022-10-16T00:06:07;7.68;;;4.13;;
13832;SDS011;6987;19.472;-99.276;2022-10-16T00:08:38;4.43;;;3.78;;
13832;SDS011;6987;19.472;-99.276;2022-10-16T00:11:08;4.57;;;3.30;;
13832;SDS011;6987;19.472;-99.276;2022-10-16T00:13:38;4.20;;;3.53;;
13832;SDS011;6987;19.472;-99.276;2022-10-16T00:16:07;3.80;;;3.47;;
13832;SDS011;6987;19.472;-99.276;2022-10-16T00:18:37;3.67;;;3.38;;
13832;SDS011;6987;19.472;-99.276;2022-10-16T00:21:07;4.55;;;4.15;;
13832;SDS011;6987;19.472;-99.276;2022-10-16T00:23:38;4.45;;;4.05;;
13832;SDS011;6987;19.472;-99.276;2022-10-16T00:26:08;5.38;;;3.58;;
13832;SDS011;6987;19.472;-99.276;2022-10-16T00:28:37;3.90;;;3.55;;
13832;SDS011;6987;19.472;-99.276;2022-10-16T00:31:07;7.38;;;3.88;;
13832;SDS011;6987;19.472;-99.276;2022-10-16T00:33:37;4.63;;;3.50;;
13832;SDS011;6987;19.472;-99.276;2022-10-16T00:36:06;6.18;;;3.50;;
13832;SDS011;6987;19.472;-99.276;2022-10-16T00:38:35;8.30;;;3.95;;
13832;SDS011;6987;19.472;-99.276;2022-10-16T00:41:07;6.53;;;3.80;;
13832;SDS011;6987;19.472;-99.276;2022-10-16T00:43:37;9.65;;;4.05;;
13832;SDS011;6987;19.472;-99.276;2022-10-16T00:46:09;3.90;;;3.53;;
13832;SDS011;6987;19.472;-99.276;2022-10-16T00:48:39;9.52;;;4.38;;
13832;SDS011;6987;19.472;-99.276;2022-10-16T00:51:08;4.47;;;4.07;;
13832;SDS011;6987;19.472;-99.276;2022-10-16T00:53:37;4.75;;;3.75;;
13832;SDS011;6987;19.472;-99.276;2022-10-16T00:56:08;3.90;;;3.60;;
13832;SDS011;6987;19.472;-99.276;2022-10-16T00:58:36;5.13;;;3.80;;
13832;SDS011;6987;19.472;-99.276;2022-10-16T01:01:05;4.57;;;3.80;;
13832;SDS011;6987;19.472;-99.276;2022-10-16T01:03:35;4.53;;;4.13;;
13832;SDS011;6987;19.472;-99.276;2022-10-16T01:06:09;5.68;;;4.07;;
13832;SDS011;6987;19.472;-99.276;2022-10-16T01:08:45;6.80;;;4.80;;
13832;SDS011;6987;19.472;-99.276;2022-10-16T01:11:19;5.10;;;4.47;;
13832;SDS011;6987;19.472;-99.276;2022-10-16T01:13:52;8.15;;;4.85;;
13832;SDS011;6987;19.472;-99.276;2022-10-16T01:16:24;26.83;;;7.57;;
13832;SDS011;6987;19.472;-99.276;2022-10-16T01:18:56;14.82;;;5.97;;
13832;SDS011;6987;19.472;-99.276;2022-10-16T01:21:26;15.48;;;6.30;;
13832;SDS011;6987;19.472;-99.276;2022-10-16T01:23:59;15.50;;;6.18;;
13832;SDS011;6987;19.472;-99.276;2022-10-16T01:26:35;15.13;;;6.70;;
13832;SDS011;6987;19.472;-99.276;2022-10-16T01:29:07;9.10;;;5.30;;
13832;SDS011;6987;19.472;-99.276;2022-10-16T01:31:38;7.35;;;5.68;;
13832;SDS011;6987;19.472;-99.276;2022-10-16T01:34:10;12.98;;;6.95;;
13832;SDS011;6987;19.472;-99.276;2022-10-16T01:36:41;8.15;;;6.18;;
13832;SDS011;6987;19.472;-99.276;2022-10-16T01:39:12;14.43;;;7.40;;
13832;SDS011;6987;19.472;-99.276;2022-10-16T01:41:43;16.10;;;7.82;;
13832;SDS011;6987;19.472;-99.276;2022-10-16T01:44:16;14.35;;;6.95;;
13832;SDS011;6987;19.472;-99.276;2022-10-16T01:46:48;13.48;;;6.97;;
13832;SDS011;6987;19.472;-99.276;2022-10-16T01:49:18;18.45;;;7.50;;
13832;SDS011;6987;19.472;-99.276;2022-10-16T01:51:49;13.00;;;6.95;;
13832;SDS011;6987;19.472;-99.276;2022-10-16T01:54:19;13.52;;;7.15;;
13832;SDS011;6987;19.472;-99.276;2022-10-16T01:56:49;12.57;;;6.57;;
13832;SDS011;6987;19.472;-99.276;2022-10-16T01:59:21;15.35;;;6.40;;
13832;SDS011;6987;19.472;-99.276;2022-10-16T02:01:52;30.30;;;7.00;;
13832;SDS011;6987;19.472;-99.276;2022-10-16T02:04:24;16.83;;;6.13;;
13832;SDS011;6987;19.472;-99.276;2022-10-16T02:06:54;9.15;;;5.75;;
13832;SDS011;6987;19.472;-99.276;2022-10-16T02:09:23;6.20;;;5.68;;
13832;SDS011;6987;19.472;-99.276;2022-10-16T02:11:53;15.20;;;5.35;;
13832;SDS011;6987;19.472;-99.276;2022-10-16T02:14:24;5.53;;;5.03;;
13832;SDS011;6987;19.472;-99.276;2022-10-16T02:16:53;7.03;;;4.20;;
13832;SDS011;6987;19.472;-99.276;2022-10-16T02:19:22;12.75;;;5.57;;
13832;SDS011;6987;19.472;-99.276;2022-10-16T02:21:52;8.20;;;5.20;;
13832;SDS011;6987;19.472;-99.276;2022-10-16T02:24:26;9.13;;;5.70;;
13832;SDS011;6987;19.472;-99.276;2022-10-16T02:26:57;13.88;;;6.00;;
13832;SDS011;6987;19.472;-99.276;2022-10-16T02:29:31;17.52;;;7.10;;
13832;SDS011;6987;19.472;-99.276;2022-10-16T02:32:03;12.57;;;6.32;;
13832;SDS011;6987;19.472;-99.276;2022-10-16T02:34:33;11.77;;;6.07;;
13832;SDS011;6987;19.472;-99.276;2022-10-16T02:37:02;27.48;;;6.43;;
13832;SDS011;6987;19.472;-99.276;2022-10-16T02:39:35;9.77;;;7.38;;
13832;SDS011;6987;19.472;-99.276;2022-10-16T02:42:04;12.45;;;6.95;;
13832;SDS011;6987;19.472;-99.276;2022-10-16T02:44:34;11.13;;;7.38;;
13832;SDS011;6987;19.472;-99.276;2022-10-16T02:47:03;10.57;;;6.95;;
13832;SDS011;6987;19.472;-99.276;2022-10-16T02:49:33;14.38;;;6.97;;
13832;SDS011;6987;19.472;-99.276;2022-10-16T02:52:02;13.05;;;7.18;;
13832;SDS011;6987;19.472;-99.276;2022-10-16T02:54:30;14.95;;;7.57;;
13832;SDS011;6987;19.472;-99.276;2022-10-16T02:57:00;12.75;;;7.75;;
13832;SDS011;6987;19.472;-99.276;2022-10-16T02:59:29;18.13;;;7.15;;
13832;SDS011;6987;19.472;-99.276;2022-10-16T03:02:00;14.07;;;8.05;;
13832;SDS011;6987;19.472;-99.276;2022-10-16T03:04:28;19.92;;;7.57;;
13832;SDS011;6987;19.472;-99.276;2022-10-16T03:06:57;16.90;;;6.95;;
13832;SDS011;6987;19.472;-99.276;2022-10-16T03:09:26;10.20;;;6.55;;
13832;SDS011;6987;19.472;-99.276;2022-10-16T03:11:55;11.43;;;6.55;;
13832;SDS011;6987;19.472;-99.276;2022-10-16T03:14:24;28.25;;;7.03;;
13832;SDS011;6987;19.472;-99.276;2022-10-16T03:16:53;7.90;;;5.25;;
13832;SDS011;6987;19.472;-99.276;2022-10-16T03:19:23;16.08;;;6.28;;
13832;SDS011;6987;19.472;-99.276;2022-10-16T03:21:52;11.90;;;5.40;;
13832;SDS011;6987;19.472;-99.276;2022-10-16T03:24:21;7.25;;;5.60;;
13832;SDS011;6987;19.472;-99.276;2022-10-16T03:26:50;10.63;;;5.95;;
13832;SDS011;6987;19.472;-99.276;2022-10-16T03:29:19;11.38;;;5.78;;
13832;SDS011;6987;19.472;-99.276;2022-10-16T03:31:48;8.73;;;6.38;;
13832;SDS011;6987;19.472;-99.276;2022-10-16T03:34:17;6.90;;;5.78;;
13832;SDS011;6987;19.472;-99.276;2022-10-16T03:36:47;6.40;;;5.68;;
13832;SDS011;6987;19.472;-99.276;2022-10-16T03:39:16;9.85;;;5.78;;
13832;SDS011;6987;19.472;-99.276;2022-10-16T03:41:45;9.43;;;5.43;;
13832;SDS011;6987;19.472;-99.276;2022-10-16T03:44:14;14.45;;;5.90;;
13832;SDS011;6987;19.472;-99.276;2022-10-16T03:46:43;15.73;;;6.28;;
13832;SDS011;6987;19.472;-99.276;2022-10-16T03:49:12;12.80;;;5.28;;
13832;SDS011;6987;19.472;-99.276;2022-10-16T03:51:41;9.60;;;6.15;;
13832;SDS011;6987;19.472;-99.276;2022-10-16T03:54:11;8.82;;;6.10;;
13832;SDS011;6987;19.472;-99.276;2022-10-16T03:56:40;6.60;;;5.32;;
13832;SDS011;6987;19.472;-99.276;2022-10-16T03:59:09;11.05;;;5.75;;
13832;SDS011;6987;19.472;-99.276;2022-10-16T04:01:38;16.98;;;6.10;;
13832;SDS011;6987;19.472;-99.276;2022-10-16T04:04:07;9.30;;;5.47;;
13832;SDS011;6987;19.472;-99.276;2022-10-16T04:06:36;16.08;;;6.28;;
13832;SDS011;6987;19.472;-99.276;2022-10-16T04:09:05;9.52;;;6.22;;
13832;SDS011;6987;19.472;-99.276;2022-10-16T04:11:36;10.88;;;5.65;;
13832;SDS011;6987;19.472;-99.276;2022-10-16T04:14:05;9.02;;;5.55;;
13832;SDS011;6987;19.472;-99.276;2022-10-16T04:16:33;7.35;;;5.82;;
13832;SDS011;6987;19.472;-99.276;2022-10-16T04:19:03;11.95;;;5.78;;
13832;SDS011;6987;19.472;-99.276;2022-10-16T04:21:32;6.57;;;5.90;;
13832;SDS011;6987;19.472;-99.276;2022-10-16T04:24:00;9.10;;;5.75;;
13832;SDS011;6987;19.472;-99.276;2022-10-16T04:26:29;9.32;;;6.15;;
13832;SDS011;6987;19.472;-99.276;2022-10-16T04:29:00;11.77;;;5.40;;
13832;SDS011;6987;19.472;-99.276;2022-10-16T04:31:29;6.18;;;5.57;;
13832;SDS011;6987;19.472;-99.276;2022-10-16T04:33:58;7.55;;;5.55;;
13832;SDS011;6987;19.472;-99.276;2022-10-16T04:36:27;15.98;;;5.78;;
13832;SDS011;6987;19.472;-99.276;2022-10-16T04:38:56;6.88;;;5.15;;
13832;SDS011;6987;19.472;-99.276;2022-10-16T04:41:25;6.82;;;6.10;;
13832;SDS011;6987;19.472;-99.276;2022-10-16T04:43:54;7.53;;;5.75;;
13832;SDS011;6987;19.472;-99.276;2022-10-16T04:46:25;9.60;;;5.65;;
13832;SDS011;6987;19.472;-99.276;2022-10-16T04:48:54;5.75;;;5.13;;
13832;SDS011;6987;19.472;-99.276;2022-10-16T04:51:23;7.80;;;5.65;;
13832;SDS011;6987;19.472;-99.276;2022-10-16T04:53:53;8.43;;;5.28;;
13832;SDS011;6987;19.472;-99.276;2022-10-16T04:56:24;6.75;;;5.00;;
13832;SDS011;6987;19.472;-99.276;2022-10-16T04:58:53;5.40;;;4.57;;
13832;SDS011;6987;19.472;-99.276;2022-10-16T05:01:22;9.30;;;5.40;;
13832;SDS011;6987;19.472;-99.276;2022-10-16T05:03:53;8.60;;;5.50;;
13832;SDS011;6987;19.472;-99.276;2022-10-16T05:06:21;9.77;;;5.32;;
13832;SDS011;6987;19.472;-99.276;2022-10-16T05:08:50;6.10;;;5.50;;
13832;SDS011;6987;19.472;-99.276;2022-10-16T05:11:19;14.88;;;5.13;;
13832;SDS011;6987;19.472;-99.276;2022-10-16T05:13:48;8.88;;;5.68;;
13832;SDS011;6987;19.472;-99.276;2022-10-16T05:16:17;5.50;;;5.00;;
13832;SDS011;6987;19.472;-99.276;2022-10-16T05:18:46;6.60;;;5.35;;
13832;SDS011;6987;19.472;-99.276;2022-10-16T05:21:17;7.22;;;5.30;;
13832;SDS011;6987;19.472;-99.276;2022-10-16T05:23:48;6.35;;;5.10;;
13832;SDS011;6987;19.472;-99.276;2022-10-16T05:26:17;7.15;;;5.32;;
13832;SDS011;6987;19.472;-99.276;2022-10-16T05:28:46;15.23;;;5.43;;
13832;SDS011;6987;19.472;-99.276;2022-10-16T05:31:15;6.85;;;4.85;;
13832;SDS011;6987;19.472;-99.276;2022-10-16T05:33:44;8.23;;;5.00;;
13832;SDS011;6987;19.472;-99.276;2022-10-16T05:36:13;8.32;;;5.38;;
13832;SDS011;6987;19.472;-99.276;2022-10-16T05:38:43;6.53;;;5.60;;
13832;SDS011;6987;19.472;-99.276;2022-10-16T05:41:12;7.57;;;6.00;;
13832;SDS011;6987;19.472;-99.276;2022-10-16T05:43:45;6.70;;;5.93;;
13832;SDS011;6987;19.472;-99.276;2022-10-16T05:46:14;5.85;;;5.35;;
13832;SDS011;6987;19.472;-99.276;2022-10-16T05:48:43;5.38;;;4.90;;
13832;SDS011;6987;19.472;-99.276;2022-10-16T05:51:12;8.48;;;6.03;;
13832;SDS011;6987;19.472;-99.276;2022-10-16T05:53:44;7.05;;;6.45;;
13832;SDS011;6987;19.472;-99.276;2022-10-16T05:56:12;7.75;;;5.97;;
13832;SDS011;6987;19.472;-99.276;2022-10-16T05:58:41;14.93;;;6.13;;
13832;SDS011;6987;19.472;-99.276;2022-10-16T06:01:11;10.07;;;6.38;;
13832;SDS011;6987;19.472;-99.276;2022-10-16T06:03:40;9.25;;;5.82;;
13832;SDS011;6987;19.472;-99.276;2022-10-16T06:06:10;7.45;;;5.82;;
13832;SDS011;6987;19.472;-99.276;2022-10-16T06:08:39;10.82;;;5.47;;
13832;SDS011;6987;19.472;-99.276;2022-10-16T06:11:10;7.20;;;5.95;;
13832;SDS011;6987;19.472;-99.276;2022-10-16T06:13:39;15.52;;;6.20;;
13832;SDS011;6987;19.472;-99.276;2022-10-16T06:16:09;12.32;;;6.88;;
13832;SDS011;6987;19.472;-99.276;2022-10-16T06:18:38;10.60;;;6.05;;
13832;SDS011;6987;19.472;-99.276;2022-10-16T06:21:07;9.85;;;6.68;;
13832;SDS011;6987;19.472;-99.276;2022-10-16T06:23:37;11.35;;;7.50;;
13832;SDS011;6987;19.472;-99.276;2022-10-16T06:26:06;12.13;;;7.28;;
13832;SDS011;6987;19.472;-99.276;2022-10-16T06:28:37;7.72;;;6.72;;
13832;SDS011;6987;19.472;-99.276;2022-10-16T06:31:06;10.00;;;7.78;;
13832;SDS011;6987;19.472;-99.276;2022-10-16T06:33:36;12.43;;;7.47;;
13832;SDS011;6987;19.472;-99.276;2022-10-16T06:36:06;9.55;;;7.28;;
13832;SDS011;6987;19.472;-99.276;2022-10-16T06:38:35;8.35;;;7.20;;
13832;SDS011;6987;19.472;-99.276;2022-10-16T06:41:04;12.00;;;6.82;;
13832;SDS011;6987;19.472;-99.276;2022-10-16T06:43:33;11.60;;;7.00;;
13832;SDS011;6987;19.472;-99.276;2022-10-16T06:46:05;12.82;;;6.35;;
13832;SDS011;6987;19.472;-99.276;2022-10-16T06:48:34;14.23;;;6.18;;
13832;SDS011;6987;19.472;-99.276;2022-10-16T06:51:03;12.82;;;6.28;;
13832;SDS011;6987;19.472;-99.276;2022-10-16T06:53:33;7.85;;;6.10;;
13832;SDS011;6987;19.472;-99.276;2022-10-16T06:56:11;7.38;;;5.60;;
13832;SDS011;6987;19.472;-99.276;2022-10-16T06:58:40;8.13;;;6.57;;
13832;SDS011;6987;19.472;-99.276;2022-10-16T07:01:11;7.47;;;6.22;;
13832;SDS011;6987;19.472;-99.276;2022-10-16T07:03:41;7.57;;;6.47;;
13832;SDS011;6987;19.472;-99.276;2022-10-16T07:06:10;9.02;;;6.38;;
13832;SDS011;6987;19.472;-99.276;2022-10-16T07:08:41;5.95;;;5.43;;
13832;SDS011;6987;19.472;-99.276;2022-10-16T07:11:10;11.32;;;6.40;;
13832;SDS011;6987;19.472;-99.276;2022-10-16T07:13:39;6.75;;;6.20;;
13832;SDS011;6987;19.472;-99.276;2022-10-16T07:16:09;6.68;;;6.03;;
13832;SDS011;6987;19.472;-99.276;2022-10-16T07:18:40;7.50;;;6.13;;
13832;SDS011;6987;19.472;-99.276;2022-10-16T07:21:12;6.85;;;6.07;;
13832;SDS011;6987;19.472;-99.276;2022-10-16T07:23:41;7.93;;;7.07;;
13832;SDS011;6987;19.472;-99.276;2022-10-16T07:26:10;7.65;;;6.32;;
13832;SDS011;6987;19.472;-99.276;2022-10-16T07:28:39;9.63;;;7.10;;
13832;SDS011;6987;19.472;-99.276;2022-10-16T07:31:10;7.68;;;5.90;;
13832;SDS011;6987;19.472;-99.276;2022-10-16T07:33:41;12.25;;;7.22;;
13832;SDS011;6987;19.472;-99.276;2022-10-16T07:36:13;15.57;;;8.73;;
13832;SDS011;6987;19.472;-99.276;2022-10-16T07:38:43;25.50;;;7.05;;
13832;SDS011;6987;19.472;-99.276;2022-10-16T07:41:12;8.55;;;6.95;;
13832;SDS011;6987;19.472;-99.276;2022-10-16T07:43:45;12.10;;;7.45;;
13832;SDS011;6987;19.472;-99.276;2022-10-16T07:46:14;7.68;;;6.80;;
13832;SDS011;6987;19.472;-99.276;2022-10-16T07:48:45;6.82;;;6.13;;
13832;SDS011;6987;19.472;-99.276;2022-10-16T07:51:14;9.95;;;7.03;;
13832;SDS011;6987;19.472;-99.276;2022-10-16T07:53:44;7.22;;;6.28;;
13832;SDS011;6987;19.472;-99.276;2022-10-16T07:56:13;7.85;;;6.32;;
13832;SDS011;6987;19.472;-99.276;2022-10-16T07:58:42;10.35;;;7.43;;
13832;SDS011;6987;19.472;-99.276;2022-10-16T08:01:11;6.88;;;6.25;;
13832;SDS011;6987;19.472;-99.276;2022-10-16T08:03:41;6.47;;;5.97;;
13832;SDS011;6987;19.472;-99.276;2022-10-16T08:06:12;8.60;;;7.00;;
13832;SDS011;6987;19.472;-99.276;2022-10-16T08:08:41;11.02;;;6.43;;
13832;SDS011;6987;19.472;-99.276;2022-10-16T08:11:10;7.65;;;6.18;;
13832;SDS011;6987;19.472;-99.276;2022-10-16T08:13:40;7.00;;;6.30;;
13832;SDS011;6987;19.472;-99.276;2022-10-16T08:16:09;7.47;;;6.80;;
13832;SDS011;6987;19.472;-99.276;2022-10-16T08:18:38;7.90;;;6.70;;
13832;SDS011;6987;19.472;-99.276;2022-10-16T08:21:07;10.85;;;6.78;;
13832;SDS011;6987;19.472;-99.276;2022-10-16T08:23:41;7.88;;;7.07;;
13832;SDS011;6987;19.472;-99.276;2022-10-16T08:26:10;15.07;;;7.15;;
13832;SDS011;6987;19.472;-99.276;2022-10-16T08:28:39;21.83;;;8.30;;
13832;SDS011;6987;19.472;-99.276;2022-10-16T08:31:08;12.23;;;7.70;;
13832;SDS011;6987;19.472;-99.276;2022-10-16T08:33:37;11.10;;;7.55;;
13832;SDS011;6987;19.472;-99.276;2022-10-16T08:36:07;15.73;;;7.22;;
13832;SDS011;6987;19.472;-99.276;2022-10-16T08:38:36;12.93;;;7.20;;
13832;SDS011;6987;19.472;-99.276;2022-10-16T08:41:20;9.07;;;7.25;;
13832;SDS011;6987;19.472;-99.276;2022-10-16T08:46:36;8.50;;;7.15;;
13832;SDS011;6987;19.472;-99.276;2022-10-16T08:49:07;12.73;;;7.97;;
13832;SDS011;6987;19.472;-99.276;2022-10-16T08:51:40;7.47;;;6.60;;
13832;SDS011;6987;19.472;-99.276;2022-10-16T08:54:15;11.52;;;7.55;;
13832;SDS011;6987;19.472;-99.276;2022-10-16T08:56:50;9.27;;;7.70;;
13832;SDS011;6987;19.472;-99.276;2022-10-16T08:59:19;7.85;;;7.05;;
13832;SDS011;6987;19.472;-99.276;2022-10-16T09:01:49;11.80;;;7.15;;
13832;SDS011;6987;19.472;-99.276;2022-10-16T09:04:34;7.57;;;6.70;;
13832;SDS011;6987;19.472;-99.276;2022-10-16T09:07:10;8.00;;;7.15;;
13832;SDS011;6987;19.472;-99.276;2022-10-16T09:09:53;8.63;;;7.00;;
13832;SDS011;6987;19.472;-99.276;2022-10-16T09:12:26;8.57;;;7.68;;
13832;SDS011;6987;19.472;-99.276;2022-10-16T09:14:59;8.52;;;7.28;;
13832;SDS011;6987;19.472;-99.276;2022-10-16T09:17:32;8.05;;;7.28;;
13832;SDS011;6987;19.472;-99.276;2022-10-16T09:20:09;7.65;;;6.78;;
13832;SDS011;6987;19.472;-99.276;2022-10-16T09:22:41;8.05;;;7.35;;
13832;SDS011;6987;19.472;-99.276;2022-10-16T09:25:10;7.95;;;7.10;;
13832;SDS011;6987;19.472;-99.276;2022-10-16T09:27:41;9.43;;;7.28;;
13832;SDS011;6987;19.472;-99.276;2022-10-16T09:30:12;8.77;;;7.03;;
13832;SDS011;6987;19.472;-99.276;2022-10-16T09:32:41;7.90;;;6.88;;
13832;SDS011;6987;19.472;-99.276;2022-10-16T09:35:14;15.20;;;7.45;;
13832;SDS011;6987;19.472;-99.276;2022-10-16T09:37:44;8.80;;;7.88;;
13832;SDS011;6987;19.472;-99.276;2022-10-16T09:40:23;7.57;;;6.97;;
13832;SDS011;6987;19.472;-99.276;2022-10-16T09:42:55;12.70;;;7.50;;
13832;SDS011;6987;19.472;-99.276;2022-10-16T09:45:26;8.88;;;7.32;;
13832;SDS011;6987;19.472;-99.276;2022-10-16T09:47:55;8.60;;;7.40;;
13832;SDS011;6987;19.472;-99.276;2022-10-16T09:50:24;8.13;;;7.25;;
13832;SDS011;6987;19.472;-99.276;2022-10-16T09:53:06;9.50;;;6.97;;
13832;SDS011;6987;19.472;-99.276;2022-10-16T09:55:47;7.72;;;7.03;;
13832;SDS011;6987;19.472;-99.276;2022-10-16T09:58:20;9.07;;;7.32;;
13832;SDS011;6987;19.472;-99.276;2022-10-16T10:00:50;9.55;;;6.97;;
13832;SDS011;6987;19.472;-99.276;2022-10-16T10:03:31;9.40;;;7.03;;
13832;SDS011;6987;19.472;-99.276;2022-10-16T10:06:03;8.75;;;7.63;;
13832;SDS011;6987;19.472;-99.276;2022-10-16T10:08:33;7.63;;;6.47;;
13832;SDS011;6987;19.472;-99.276;2022-10-16T10:11:02;8.13;;;6.55;;
13832;SDS011;6987;19.472;-99.276;2022-10-16T10:13:33;7.30;;;6.60;;
13832;SDS011;6987;19.472;-99.276;2022-10-16T10:16:01;11.52;;;7.22;;
13832;SDS011;6987;19.472;-99.276;2022-10-16T10:18:30;7.05;;;6.38;;
13832;SDS011;6987;19.472;-99.276;2022-10-16T10:20:59;8.10;;;6.55;;
13832;SDS011;6987;19.472;-99.276;2022-10-16T10:23:30;8.68;;;6.78;;
13832;SDS011;6987;19.472;-99.276;2022-10-16T10:26:00;8.82;;;6.95;;
13832;SDS011;6987;19.472;-99.276;2022-10-16T10:28:42;7.43;;;6.70;;
13832;SDS011;6987;19.472;-99.276;2022-10-16T10:31:13;8.27;;;6.68;;
13832;SDS011;6987;19.472;-99.276;2022-10-16T10:33:44;7.55;;;6.70;;
13832;SDS011;6987;19.472;-99.276;2022-10-16T10:36:22;6.20;;;5.55;;
13832;SDS011;6987;19.472;-99.276;2022-10-16T10:38:55;6.15;;;5.55;;
13832;SDS011;6987;19.472;-99.276;2022-10-16T10:41:34;7.18;;;5.82;;
13832;SDS011;6987;19.472;-99.276;2022-10-16T10:44:11;7.57;;;6.18;;
13832;SDS011;6987;19.472;-99.276;2022-10-16T10:46:44;6.32;;;5.45;;
13832;SDS011;6987;19.472;-99.276;2022-10-16T10:49:26;7.03;;;5.45;;
13832;SDS011;6987;19.472;-99.276;2022-10-16T10:52:02;7.57;;;6.15;;
13832;SDS011;6987;19.472;-99.276;2022-10-16T10:54:35;7.00;;;5.53;;
13832;SDS011;6987;19.472;-99.276;2022-10-16T10:57:08;8.30;;;6.35;;
13832;SDS011;6987;19.472;-99.276;2022-10-16T10:59:46;6.20;;;5.60;;
13832;SDS011;6987;19.472;-99.276;2022-10-16T11:02:18;8.27;;;6.10;;
13832;SDS011;6987;19.472;-99.276;2022-10-16T11:04:54;6.65;;;5.97;;
13832;SDS011;6987;19.472;-99.276;2022-10-16T11:07:25;7.43;;;5.95;;
13832;SDS011;6987;19.472;-99.276;2022-10-16T11:09:57;7.85;;;6.05;;
13832;SDS011;6987;19.472;-99.276;2022-10-16T11:12:27;9.48;;;6.10;;
13832;SDS011;6987;19.472;-99.276;2022-10-16T11:15:00;11.98;;;6.05;;
13832;SDS011;6987;19.472;-99.276;2022-10-16T11:17:31;9.20;;;5.88;;
13832;SDS011;6987;19.472;-99.276;2022-10-16T11:20:03;8.80;;;5.47;;
13832;SDS011;6987;19.472;-99.276;2022-10-16T11:22:34;5.80;;;5.25;;
13832;SDS011;6987;19.472;-99.276;2022-10-16T11:25:05;5.57;;;4.97;;
13832;SDS011;6987;19.472;-99.276;2022-10-16T11:27:43;8.57;;;5.70;;
13832;SDS011;6987;19.472;-99.276;2022-10-16T11:30:16;5.65;;;5.10;;
13832;SDS011;6987;19.472;-99.276;2022-10-16T11:32:56;5.65;;;5.20;;
13832;SDS011;6987;19.472;-99.276;2022-10-16T11:35:29;5.13;;;4.60;;
13832;SDS011;6987;19.472;-99.276;2022-10-16T11:38:01;6.10;;;4.97;;
13832;SDS011;6987;19.472;-99.276;2022-10-16T11:40:32;5.68;;;4.47;;
13832;SDS011;6987;19.472;-99.276;2022-10-16T11:43:04;5.90;;;5.32;;
13832;SDS011;6987;19.472;-99.276;2022-10-16T11:45:39;5.57;;;5.18;;
13832;SDS011;6987;19.472;-99.276;2022-10-16T11:48:11;5.55;;;5.03;;
13832;SDS011;6987;19.472;-99.276;2022-10-16T11:50:43;5.80;;;5.30;;
13832;SDS011;6987;19.472;-99.276;2022-10-16T11:53:16;5.10;;;4.38;;
13832;SDS011;6987;19.472;-99.276;2022-10-16T11:55:47;4.82;;;4.43;;
13832;SDS011;6987;19.472;-99.276;2022-10-16T11:58:22;5.18;;;4.78;;
13832;SDS011;6987;19.472;-99.276;2022-10-16T12:00:58;5.72;;;4.70;;
13832;SDS011;6987;19.472;-99.276;2022-10-16T12:03:28;6.90;;;4.68;;
13832;SDS011;6987;19.472;-99.276;2022-10-16T12:06:12;5.13;;;4.63;;
13832;SDS011;6987;19.472;-99.276;2022-10-16T12:08:43;5.80;;;5.30;;
13832;SDS011;6987;19.472;-99.276;2022-10-16T12:11:22;5.25;;;4.75;;
13832;SDS011;6987;19.472;-99.276;2022-10-16T12:13:51;8.68;;;5.55;;
13832;SDS011;6987;19.472;-99.276;2022-10-16T12:16:23;7.60;;;5.13;;
13832;SDS011;6987;19.472;-99.276;2022-10-16T12:19:03;5.40;;;4.57;;
13832;SDS011;6987;19.472;-99.276;2022-10-16T12:21:32;7.55;;;5.30;;
13832;SDS011;6987;19.472;-99.276;2022-10-16T12:24:01;18.85;;;5.28;;
13832;SDS011;6987;19.472;-99.276;2022-10-16T12:26:31;18.92;;;5.75;;
13832;SDS011;6987;19.472;-99.276;2022-10-16T12:29:13;12.52;;;5.47;;
13832;SDS011;6987;19.472;-99.276;2022-10-16T12:31:45;10.90;;;5.80;;
13832;SDS011;6987;19.472;-99.276;2022-10-16T12:34:19;5.43;;;4.80;;
13832;SDS011;6987;19.472;-99.276;2022-10-16T12:36:49;13.68;;;5.70;;
13832;SDS011;6987;19.472;-99.276;2022-10-16T12:39:21;15.65;;;6.40;;
13832;SDS011;6987;19.472;-99.276;2022-10-16T12:42:00;12.48;;;4.65;;
13832;SDS011;6987;19.472;-99.276;2022-10-16T12:44:32;8.52;;;4.97;;
13832;SDS011;6987;19.472;-99.276;2022-10-16T12:47:03;15.27;;;5.68;;
13832;SDS011;6987;19.472;-99.276;2022-10-16T12:49:35;12.23;;;5.35;;
13832;SDS011;6987;19.472;-99.276;2022-10-16T12:54:49;11.77;;;5.55;;
13832;SDS011;6987;19.472;-99.276;2022-10-16T12:57:25;9.05;;;5.78;;
13832;SDS011;6987;19.472;-99.276;2022-10-16T12:59:58;11.63;;;5.60;;
13832;SDS011;6987;19.472;-99.276;2022-10-16T13:05:21;10.98;;;6.13;;
13832;SDS011;6987;19.472;-99.276;2022-10-16T13:07:58;12.38;;;5.90;;
13832;SDS011;6987;19.472;-99.276;2022-10-16T13:10:32;46.40;;;9.88;;
13832;SDS011;6987;19.472;-99.276;2022-10-16T13:16:01;43.75;;;8.43;;
13832;SDS011;6987;19.472;-99.276;2022-10-16T13:18:33;24.02;;;7.85;;
13832;SDS011;6987;19.472;-99.276;2022-10-16T13:21:13;30.40;;;7.75;;
13832;SDS011;6987;19.472;-99.276;2022-10-16T13:23:48;22.98;;;7.72;;
13832;SDS011;6987;19.472;-99.276;2022-10-16T13:26:22;37.08;;;8.35;;
13832;SDS011;6987;19.472;-99.276;2022-10-16T13:28:53;23.45;;;6.35;;
13832;SDS011;6987;19.472;-99.276;2022-10-16T13:31:25;15.68;;;6.78;;
13832;SDS011;6987;19.472;-99.276;2022-10-16T13:33:55;25.33;;;7.20;;
13832;SDS011;6987;19.472;-99.276;2022-10-16T13:36:26;11.25;;;6.95;;
13832;SDS011;6987;19.472;-99.276;2022-10-16T13:39:00;9.95;;;6.68;;
13832;SDS011;6987;19.472;-99.276;2022-10-16T13:41:29;18.63;;;6.68;;
13832;SDS011;6987;19.472;-99.276;2022-10-16T13:44:01;13.70;;;6.03;;
13832;SDS011;6987;19.472;-99.276;2022-10-16T13:46:30;10.63;;;6.70;;
13832;SDS011;6987;19.472;-99.276;2022-10-16T13:49:00;13.10;;;6.15;;
13832;SDS011;6987;19.472;-99.276;2022-10-16T13:51:31;7.40;;;5.40;;
13832;SDS011;6987;19.472;-99.276;2022-10-16T13:54:01;10.52;;;5.40;;
13832;SDS011;6987;19.472;-99.276;2022-10-16T13:56:30;10.27;;;5.18;;
13832;SDS011;6987;19.472;-99.276;2022-10-16T13:58:59;5.72;;;5.15;;
13832;SDS011;6987;19.472;-99.276;2022-10-16T14:01:31;8.60;;;5.20;;
13832;SDS011;6987;19.472;-99.276;2022-10-16T14:04:02;9.38;;;5.38;;
13832;SDS011;6987;19.472;-99.276;2022-10-16T14:06:33;10.02;;;5.93;;
13832;SDS011;6987;19.472;-99.276;2022-10-16T14:09:04;12.30;;;7.43;;
13832;SDS011;6987;19.472;-99.276;2022-10-16T14:11:34;11.10;;;6.43;;
13832;SDS011;6987;19.472;-99.276;2022-10-16T14:14:05;13.13;;;9.50;;
13832;SDS011;6987;19.472;-99.276;2022-10-16T14:16:34;11.70;;;7.78;;
13832;SDS011;6987;19.472;-99.276;2022-10-16T14:19:04;14.38;;;10.25;;
13832;SDS011;6987;19.472;-99.276;2022-10-16T14:21:37;12.43;;;9.68;;
13832;SDS011;6987;19.472;-99.276;2022-10-16T14:24:12;12.75;;;10.30;;
13832;SDS011;6987;19.472;-99.276;2022-10-16T14:26:41;11.00;;;9.68;;
13832;SDS011;6987;19.472;-99.276;2022-10-16T14:29:11;11.55;;;9.95;;
13832;SDS011;6987;19.472;-99.276;2022-10-16T14:31:40;13.88;;;10.80;;
13832;SDS011;6987;19.472;-99.276;2022-10-16T14:36:58;14.55;;;11.18;;
13832;SDS011;6987;19.472;-99.276;2022-10-16T14:39:32;15.95;;;12.27;;
13832;SDS011;6987;19.472;-99.276;2022-10-16T14:42:01;18.98;;;12.48;;
13832;SDS011;6987;19.472;-99.276;2022-10-16T14:44:31;15.38;;;12.55;;
13832;SDS011;6987;19.472;-99.276;2022-10-16T14:47:07;16.85;;;13.27;;
13832;SDS011;6987;19.472;-99.276;2022-10-16T14:49:38;15.10;;;12.02;;
13832;SDS011;6987;19.472;-99.276;2022-10-16T14:52:10;13.63;;;11.60;;
13832;SDS011;6987;19.472;-99.276;2022-10-16T14:54:40;14.18;;;10.90;;
13832;SDS011;6987;19.472;-99.276;2022-10-16T14:57:16;13.07;;;9.50;;
13832;SDS011;6987;19.472;-99.276;2022-10-16T14:59:45;14.07;;;11.50;;
13832;SDS011;6987;19.472;-99.276;2022-10-16T15:02:16;12.43;;;11.02;;
13832;SDS011;6987;19.472;-99.276;2022-10-16T15:04:47;15.43;;;11.70;;